Time;durP1;ratioP1;P1;durP2;ratioP2;P2;SDS_P1;SDS_P2;PMS_P1;PMS_P2;Temp;Humidity;BMP_temperature;BMP_pressure;BME280_temperature;BME280_humidity;BME280_pressure;Samples;Min_cycle;Max_cycle;Signal;HPM_P1;HPM_P2
2022/10/05 00:01:04;;;;;;;50.30;41.70;;;;;;;5.21;100.00;99779.42;105217;1271;75381;-74
2022/10/05 00:03:35;;;;;;;41.50;35.80;;;;;;;5.16;100.00;99783.82;105238;1271;69390;-73
2022/10/05 00:06:03;;;;;;;43.90;38.50;;;;;;;5.06;100.00;99779.38;105211;1271;73728;-74
2022/10/05 00:08:34;;;;;;;44.50;36.20;;;;;;;4.98;100.00;99779.09;105227;1271;61433;-73
2022/10/05 00:11:01;;;;;;;43.20;36.50;;;;;;;4.92;100.00;99777.34;105234;1271;61167;-74
2022/10/05 00:13:29;;;;;;;47.50;40.00;;;;;;;4.87;100.00;99781.00;105231;1271;75068;-74
2022/10/05 00:16:09;;;;;;;47.80;39.40;;;;;;;4.83;100.00;99785.54;105237;1271;69321;-74
2022/10/05 00:18:36;;;;;;;52.80;39.60;;;;;;;4.81;100.00;99789.13;104974;1271;73350;-74
2022/10/05 00:21:16;;;;;;;51.70;42.60;;;;;;;4.80;100.00;99792.66;105217;1271;61369;-74
2022/10/05 00:23:42;;;;;;;56.30;42.90;;;;;;;4.81;100.00;99786.67;105219;1271;62043;-75
2022/10/05 00:26:23;;;;;;;54.90;42.50;;;;;;;4.81;100.00;99781.20;104984;1271;61455;-73
2022/10/05 00:28:53;;;;;;;49.00;40.70;;;;;;;4.82;100.00;99782.59;105204;1271;69259;-75
2022/10/05 00:31:26;;;;;;;55.10;43.00;;;;;;;4.81;100.00;99785.08;105058;1271;74423;-73
2022/10/05 00:33:53;;;;;;;49.80;40.20;;;;;;;4.80;100.00;99787.39;105387;1271;61307;-75
2022/10/05 00:36:20;;;;;;;50.40;40.50;;;;;;;4.79;100.00;99782.48;105251;1270;61385;-75
2022/10/05 00:38:47;;;;;;;49.10;41.30;;;;;;;4.76;100.00;99784.00;105193;1270;61257;-76
2022/10/05 00:41:33;;;;;;;47.30;39.60;;;;;;;4.73;100.00;99789.02;105232;1271;69385;-75
2022/10/05 00:44:24;;;;;;;44.60;37.00;;;;;;;4.69;100.00;99794.41;105092;1271;146559;-74
2022/10/05 00:47:38;;;;;;;45.50;37.10;;;;;;;4.65;100.00;99789.98;105220;1271;61355;-75
2022/10/05 00:50:32;;;;;;;47.10;37.70;;;;;;;4.59;100.00;99785.23;104629;1277;61865;-74
2022/10/05 00:53:33;;;;;;;47.10;38.80;;;;;;;4.57;100.00;99780.52;104653;1277;75615;-74
2022/10/05 00:56:36;;;;;;;46.50;36.50;;;;;;;4.54;100.00;99774.09;104670;1277;69257;-74
2022/10/05 00:59:25;;;;;;;43.90;35.90;;;;;;;4.52;100.00;99772.04;104633;1277;73277;-76
2022/10/05 01:02:13;;;;;;;41.90;35.60;;;;;;;4.49;100.00;99767.39;104658;1277;61387;-76
2022/10/05 01:04:52;;;;;;;41.40;35.00;;;;;;;4.46;100.00;99757.80;104683;1277;62052;-74
2022/10/05 01:08:13;;;;;;;46.00;37.30;;;;;;;4.39;100.00;99757.13;104682;1277;75392;-75
2022/10/05 01:10:47;;;;;;;44.40;34.70;;;;;;;4.33;100.00;99755.17;104650;1277;70236;-73
2022/10/05 01:13:21;;;;;;;45.90;38.30;;;;;;;4.31;100.00;99749.80;104700;1277;73176;-73
2022/10/05 01:16:08;;;;;;;45.80;37.30;;;;;;;4.31;100.00;99748.92;104715;1277;61459;-73
2022/10/05 01:18:54;;;;;;;43.90;36.00;;;;;;;4.30;100.00;99752.47;104673;1276;61297;-74
2022/10/05 01:21:27;;;;;;;44.10;34.60;;;;;;;4.27;100.00;99747.27;104692;1277;74725;-76
2022/10/05 01:24:02;;;;;;;40.00;33.10;;;;;;;4.25;100.00;99741.16;104699;1277;69442;-75
2022/10/05 01:26:42;;;;;;;42.80;35.80;;;;;;;4.22;100.00;99741.96;105005;1271;73889;-72
2022/10/05 01:29:31;;;;;;;45.00;39.70;;;;;;;4.19;100.00;99738.18;105194;1271;61370;-73
2022/10/05 01:32:30;;;;;;;45.80;40.60;;;;;;;4.16;100.00;99741.09;105223;1271;62844;-73
2022/10/05 01:35:17;;;;;;;47.50;38.00;;;;;;;4.12;100.00;99741.19;104793;1275;75427;-73
2022/10/05 01:38:06;;;;;;;43.60;35.90;;;;;;;4.09;100.00;99736.89;104806;1277;70202;-72
2022/10/05 01:40:45;;;;;;;44.70;36.10;;;;;;;4.05;100.00;99737.52;104772;1277;73476;-74
2022/10/05 01:43:20;;;;;;;44.80;37.80;;;;;;;4.05;100.00;99738.95;104817;1277;61387;-73
2022/10/05 01:45:55;;;;;;;52.20;45.10;;;;;;;4.05;100.00;99737.34;104810;1277;61786;-74
2022/10/05 01:48:28;;;;;;;49.60;40.50;;;;;;;4.07;100.00;99738.17;104811;1275;76122;-74
2022/10/05 01:51:25;;;;;;;47.90;41.70;;;;;;;4.09;100.00;99740.06;104824;1276;70146;-75
2022/10/05 01:54:12;;;;;;;57.60;44.50;;;;;;;4.10;100.00;99743.90;104823;1277;74821;-74
2022/10/05 01:56:52;;;;;;;57.20;44.60;;;;;;;4.11;100.00;99748.27;104768;1276;61272;-73
2022/10/05 01:59:57;;;;;;;50.00;41.60;;;;;;;4.12;100.00;99751.59;104844;1277;61383;-73
2022/10/05 02:02:25;;;;;;;51.20;41.00;;;;;;;4.12;100.00;99748.95;104959;1277;73691;-74
2022/10/05 02:05:13;;;;;;;49.00;40.30;;;;;;;4.11;100.00;99747.90;104879;1277;69257;-74
2022/10/05 02:07:45;;;;;;;53.30;44.50;;;;;;;4.13;100.00;99746.98;104769;1277;73162;-73
2022/10/05 02:10:41;;;;;;;49.30;42.20;;;;;;;4.14;100.00;99743.27;104513;1277;61406;-73
2022/10/05 02:13:34;;;;;;;51.90;41.70;;;;;;;4.13;100.00;99732.56;104967;1271;61400;-74
2022/10/05 02:16:07;;;;;;;51.40;42.70;;;;;;;4.11;100.00;99722.23;104990;1271;75110;-73
2022/10/05 02:18:40;;;;;;;45.20;38.10;;;;;;;4.11;100.00;99713.80;105015;1271;69201;-73
2022/10/05 02:21:07;;;;;;;50.50;40.10;;;;;;;4.07;100.00;99705.83;105224;1271;74459;-74
2022/10/05 02:23:39;;;;;;;46.00;38.80;;;;;;;4.06;100.00;99703.41;104953;1271;61448;-73
2022/10/05 02:26:09;;;;;;;42.40;37.70;;;;;;;4.06;100.00;99707.77;105235;1271;62642;-76
2022/10/05 02:28:50;;;;;;;42.40;37.60;;;;;;;4.05;100.00;99706.08;105197;1271;76162;-75
2022/10/05 02:31:18;;;;;;;;;;;;;;;4.03;100.00;99702.25;105243;1271;70316;-72
2022/10/05 02:33:45;;;;;;;43.70;36.60;;;;;;;4.01;100.00;99698.79;105212;1270;72397;-73
2022/10/05 02:36:16;;;;;;;44.90;38.40;;;;;;;4.00;100.00;99695.66;105204;1270;61410;-73
2022/10/05 02:38:48;;;;;;;45.50;37.50;;;;;;;3.99;100.00;99694.80;105228;1271;61877;-73
2022/10/05 02:41:32;;;;;;;44.20;37.30;;;;;;;3.99;100.00;99694.64;105215;1271;74595;-73
2022/10/05 02:44:17;;;;;;;49.00;39.10;;;;;;;3.98;100.00;99692.02;105228;1270;70623;-73
2022/10/05 02:46:53;;;;;;;47.00;39.50;;;;;;;3.97;100.00;99693.27;105237;1271;73827;-75
2022/10/05 02:49:41;;;;;;;47.00;39.80;;;;;;;3.96;100.00;99691.87;105233;1271;61256;-73
2022/10/05 02:52:26;;;;;;;50.10;38.60;;;;;;;3.98;100.00;99696.06;105231;1270;61264;-74
2022/10/05 02:55:05;;;;;;;44.50;37.50;;;;;;;3.99;100.00;99691.82;105209;1271;76271;-74
2022/10/05 02:57:41;;;;;;;45.30;38.30;;;;;;;3.99;100.00;99687.77;105199;1271;69406;-74
2022/10/05 03:00:14;;;;;;;43.70;37.60;;;;;;;3.98;100.00;99679.54;105036;1271;72894;-74
2022/10/05 03:03:03;;;;;;;46.90;38.40;;;;;;;3.96;100.00;99677.10;105209;1271;61400;-73
2022/10/05 03:05:37;;;;;;;44.20;36.90;;;;;;;3.95;100.00;99677.67;105233;1271;61407;-74
2022/10/05 03:08:41;;;;;;;46.40;37.90;;;;;;;3.92;100.00;99678.46;105285;1271;75428;-76
2022/10/05 03:11:52;;;;;;;47.50;38.30;;;;;;;3.91;100.00;99682.17;105209;1271;69221;-73
2022/10/05 03:14:25;;;;;;;45.90;38.50;;;;;;;3.91;100.00;99686.05;105236;1271;72609;-74
2022/10/05 03:17:03;;;;;;;44.30;37.70;;;;;;;3.93;100.00;99691.65;105238;1271;61330;-73
2022/10/05 03:19:55;;;;;;;52.00;40.80;;;;;;;3.96;100.00;99697.33;104958;1271;61715;-72
2022/10/05 03:22:28;;;;;;;53.50;42.80;;;;;;;4.01;100.00;99695.27;105188;1271;74815;-74
2022/10/05 03:25:12;;;;;;;54.10;45.10;;;;;;;4.05;100.00;99702.55;105195;1271;69219;-73
2022/10/05 03:27:50;;;;;;;55.10;45.00;;;;;;;4.08;100.00;99712.13;105222;1271;73208;-73
2022/10/05 03:30:25;;;;;;;59.10;46.20;;;;;;;4.09;100.00;99712.98;104998;1271;61435;-74
2022/10/05 03:33:29;;;;;;;54.10;42.20;;;;;;;4.10;100.00;99721.73;105267;1271;61343;-72
2022/10/05 03:36:01;;;;;;;51.30;43.70;;;;;;;4.11;100.00;99727.52;104994;1271;73589;-74
2022/10/05 03:38:47;;;;;;;55.00;44.30;;;;;;;4.11;100.00;99730.66;105231;1271;68320;-74
2022/10/05 03:41:30;;;;;;;52.50;43.70;;;;;;;4.11;100.00;99730.15;105242;1270;73482;-75
2022/10/05 03:44:08;;;;;;;54.60;43.10;;;;;;;4.11;100.00;99734.02;105217;1271;61386;-73
2022/10/05 03:46:43;;;;;;;52.80;44.30;;;;;;;4.09;100.00;99736.02;105195;1271;62023;-75
2022/10/05 03:49:41;;;;;;;52.70;43.10;;;;;;;4.07;100.00;99740.28;105210;1271;74754;-73
2022/10/05 03:52:10;;;;;;;51.30;41.80;;;;;;;4.06;100.00;99741.91;104967;1271;69743;-72
2022/10/05 03:54:43;;;;;;;54.60;44.50;;;;;;;4.04;100.00;99737.92;105223;1271;73700;-72
2022/10/05 03:57:16;;;;;;;51.20;44.20;;;;;;;4.01;100.00;99739.77;105180;1271;61400;-72
2022/10/05 03:59:54;;;;;;;56.60;47.40;;;;;;;3.98;100.00;99753.55;105216;1270;60853;-73
2022/10/05 04:03:05;;;;;;;56.70;46.10;;;;;;;3.98;100.00;99748.80;105258;1271;76162;-74
2022/10/05 04:05:40;;;;;;;53.50;42.70;;;;;;;3.96;100.00;99739.73;104628;1277;69209;-75
2022/10/05 04:08:19;;;;;;;44.20;39.20;;;;;;;3.93;100.00;99736.10;104502;1277;74235;-73
2022/10/05 04:10:50;;;;;;;45.60;38.00;;;;;;;3.89;100.00;99729.36;104626;1277;61448;-74
2022/10/05 04:13:41;;;;;;;45.10;38.10;;;;;;;3.86;100.00;99719.08;104495;1277;61258;-75
2022/10/05 04:16:14;;;;;;;44.50;35.70;;;;;;;3.80;100.00;99709.95;104669;1277;76447;-73
2022/10/05 04:18:48;;;;;;;39.90;34.80;;;;;;;3.70;100.00;99699.65;104642;1277;68184;-73
2022/10/05 04:21:20;;;;;;;36.90;32.80;;;;;;;3.61;100.00;99694.27;104646;1277;72292;-73
2022/10/05 04:24:15;;;;;;;40.20;34.50;;;;;;;3.55;100.00;99699.20;104667;1277;61321;-75
2022/10/05 04:26:56;;;;;;;39.00;33.80;;;;;;;3.52;100.00;99702.42;104663;1277;61941;-74
2022/10/05 04:29:38;;;;;;;43.00;36.30;;;;;;;3.52;100.00;99686.61;104711;1277;75494;-74
2022/10/05 04:32:14;;;;;;;40.80;35.30;;;;;;;3.51;100.00;99676.29;104690;1277;70519;-75
2022/10/05 04:35:00;;;;;;;46.60;39.40;;;;;;;3.51;100.00;99678.23;104694;1277;74201;-75
2022/10/05 04:37:55;;;;;;;62.40;50.10;;;;;;;3.52;100.00;99682.05;104666;1277;61386;-75
2022/10/05 04:40:24;;;;;;;66.90;54.40;;;;;;;3.57;100.00;99683.14;104655;1277;61177;-75
2022/10/05 04:43:18;;;;;;;65.20;54.90;;;;;;;3.64;100.00;99679.62;104976;1271;74813;-75
2022/10/05 04:46:07;;;;;;;66.50;54.00;;;;;;;3.70;100.00;99679.09;105234;1271;70191;-75
2022/10/05 04:48:49;;;;;;;59.10;51.00;;;;;;;3.73;100.00;99688.85;105217;1271;72820;-73
2022/10/05 04:51:34;;;;;;;62.60;51.10;;;;;;;3.75;100.00;99696.19;105176;1271;61374;-73
2022/10/05 04:54:19;;;;;;;60.00;48.30;;;;;;;3.75;100.00;99696.18;105247;1270;61343;-74
2022/10/05 04:56:58;;;;;;;57.40;49.60;;;;;;;3.75;100.00;99696.55;105227;1270;75343;-73
2022/10/05 04:59:53;;;;;;;61.90;51.10;;;;;;;3.76;100.00;99691.60;105234;1271;69418;-73
2022/10/05 05:02:38;;;;;;;62.50;52.40;;;;;;;3.78;100.00;99697.67;105023;1271;73178;-74
2022/10/05 05:05:23;;;;;;;60.30;50.90;;;;;;;3.81;100.00;99698.48;104982;1271;61329;-75
2022/10/05 05:08:08;;;;;;;61.10;51.40;;;;;;;3.84;100.00;99701.02;105189;1271;61514;-74
2022/10/05 05:10:59;;;;;;;59.80;50.80;;;;;;;3.91;100.00;99701.54;105223;1270;76367;-77
2022/10/05 05:13:35;;;;;;;55.90;48.00;;;;;;;3.98;100.00;99697.48;105066;1271;69355;-75
2022/10/05 05:16:13;;;;;;;58.70;49.90;;;;;;;4.06;100.00;99702.16;105181;1271;73130;-74
2022/10/05 05:19:01;;;;;;;57.80;51.40;;;;;;;4.28;100.00;99706.09;105264;1271;61253;-74
2022/10/05 05:21:38;;;;;;;56.50;50.40;;;;;;;4.58;100.00;99697.95;105185;1271;61402;-74
2022/10/05 05:24:28;;;;;;;54.50;44.50;;;;;;;4.76;100.00;99693.15;105246;1271;76278;-75
2022/10/05 05:27:23;;;;;;;45.50;40.80;;;;;;;4.89;100.00;99686.60;105219;1271;69204;-74
2022/10/05 05:30:28;;;;;;;43.80;39.20;;;;;;;5.05;100.00;99688.70;105209;1271;73447;-74
2022/10/05 05:33:22;;;;;;;42.40;37.90;;;;;;;5.17;100.00;99689.88;105262;1271;61387;-75
2022/10/05 05:36:05;;;;;;;42.40;37.90;;;;;;;5.20;100.00;99686.06;105316;1271;62309;-74
2022/10/05 05:38:44;;;;;;;41.60;37.30;;;;;;;5.28;100.00;99681.23;105209;1271;75559;-73
2022/10/05 05:41:36;;;;;;;39.40;35.40;;;;;;;5.37;100.00;99678.80;105033;1271;67899;-74
2022/10/05 05:44:25;;;;;;;41.80;37.40;;;;;;;5.46;100.00;99668.63;105331;1271;73523;-73
2022/10/05 05:47:07;;;;;;;42.50;38.10;;;;;;;5.54;100.00;99664.49;105238;1271;61410;-76
2022/10/05 05:50:06;;;;;;;41.40;37.10;;;;;;;5.57;100.00;99663.30;105054;1271;61294;-73
2022/10/05 05:52:35;;;;;;;42.80;38.50;;;;;;;5.62;100.00;99666.80;104834;1277;75123;-75
2022/10/05 05:55:32;;;;;;;45.70;38.80;;;;;;;5.66;100.00;99670.73;104872;1277;69904;-74
2022/10/05 05:58:13;;;;;;;40.90;36.50;;;;;;;5.69;100.00;99685.95;104318;1281;74403;-74
2022/10/05 06:00:57;;;;;;;42.30;37.80;;;;;;;5.73;100.00;99691.29;104345;1281;61264;-74
2022/10/05 06:03:36;;;;;;;47.30;42.40;;;;;;;5.80;100.00;99695.98;104049;1283;61302;-75
2022/10/05 06:06:10;;;;;;;39.10;35.00;;;;;;;5.88;100.00;99702.21;104404;1281;75137;-74
2022/10/05 06:08:49;;;;;;;41.00;36.50;;;;;;;5.98;100.00;99702.04;104349;1281;69390;-75
2022/10/05 06:11:45;;;;;;;41.20;36.70;;;;;;;6.11;100.00;99696.97;104369;1281;73286;-73
2022/10/05 06:14:21;;;;;;;41.30;36.10;;;;;;;6.24;100.00;99696.13;103769;1289;61310;-74
2022/10/05 06:16:58;;;;;;;43.00;38.20;;;;;;;6.40;100.00;99706.12;103720;1289;61433;-75
2022/10/05 06:19:27;;;;;;;45.80;39.40;;;;;;;6.51;100.00;99712.75;103448;1289;75947;-74
2022/10/05 06:22:01;;;;;;;45.20;39.00;;;;;;;6.57;100.00;99716.41;103876;1289;69383;-73
2022/10/05 06:24:38;;;;;;;45.40;39.80;;;;;;;6.65;100.00;99720.01;103462;1289;74432;-74
2022/10/05 06:27:11;;;;;;;43.30;38.70;;;;;;;6.70;100.00;99721.73;103728;1289;61408;-74
2022/10/05 06:29:56;;;;;;;42.40;37.20;;;;;;;6.78;100.00;99728.98;103810;1284;61870;-75
2022/10/05 06:32:53;;;;;;;44.50;39.80;;;;;;;6.87;100.00;99725.27;104063;1283;76800;-74
2022/10/05 06:35:36;;;;;;;43.70;38.20;;;;;;;6.98;100.00;99718.31;104268;1280;69171;-73
2022/10/05 06:38:20;;;;;;;51.50;40.60;;;;;;;7.00;100.00;99714.86;104786;1277;74296;-75
2022/10/05 06:40:53;;;;;;;46.60;38.90;;;;;;;7.03;100.00;99714.05;104781;1277;61515;-73
2022/10/05 06:43:53;;;;;;;41.80;35.90;;;;;;;7.14;100.00;99704.40;104810;1277;61346;-74
2022/10/05 06:46:34;;;;;;;39.50;34.10;;;;;;;7.32;100.00;99689.88;104502;1279;76159;-72
2022/10/05 06:49:35;;;;;;;42.80;34.60;;;;;;;7.48;100.00;99688.27;104817;1277;70022;-73
2022/10/05 06:52:07;;;;;;;39.20;33.60;;;;;;;7.68;100.00;99690.45;104653;1277;73367;-73
2022/10/05 06:54:40;;;;;;;37.80;32.00;;;;;;;7.84;100.00;99697.50;104848;1275;61342;-76
2022/10/05 06:57:23;;;;;;;37.10;31.30;;;;;;;8.00;100.00;99693.63;104865;1277;61972;-73
2022/10/05 07:00:00;;;;;;;47.90;32.80;;;;;;;8.17;100.00;99697.26;104884;1277;75272;-74
2022/10/05 07:02:55;;;;;;;34.60;30.80;;;;;;;8.34;100.00;99700.38;104890;1276;69191;-74
2022/10/05 07:05:37;;;;;;;33.20;29.60;;;;;;;8.52;100.00;99705.75;104884;1277;73419;-74
2022/10/05 07:08:28;;;;;;;33.60;30.00;;;;;;;8.74;100.00;99712.16;104821;1277;61386;-74
2022/10/05 07:11:09;;;;;;;37.90;30.30;;;;;;;8.95;100.00;99714.14;104836;1277;62007;-74
2022/10/05 07:13:51;;;;;;;35.10;28.60;;;;;;;9.14;100.00;99711.60;104780;1277;76113;-75
2022/10/05 07:16:23;;;;;;;31.20;27.80;;;;;;;9.31;100.00;99707.58;104776;1277;70291;-74
2022/10/05 07:19:12;;;;;;;32.20;28.00;;;;;;;9.51;100.00;99702.85;104844;1277;71271;-75
2022/10/05 07:21:57;;;;;;;30.60;27.30;;;;;;;9.77;100.00;99696.91;104831;1277;61272;-72
2022/10/05 07:24:42;;;;;;;28.20;25.20;;;;;;;10.03;100.00;99690.20;104696;1277;61367;-75
2022/10/05 07:27:23;;;;;;;29.40;24.80;;;;;;;10.25;100.00;99682.24;104840;1276;75140;-73
2022/10/05 07:30:17;;;;;;;31.50;25.70;;;;;;;10.49;100.00;99675.66;105103;1271;70424;-73
2022/10/05 07:33:11;;;;;;;27.00;24.20;;;;;;;10.71;100.00;99685.24;104832;1277;73217;-74
2022/10/05 07:38:31;;;;;;;27.40;24.50;;;;;;;11.11;100.00;99674.24;104677;1277;61829;-72
2022/10/05 07:41:06;;;;;;;27.70;24.40;;;;;;;11.26;100.00;99677.45;104852;1277;75503;-73
2022/10/05 07:43:44;;;;;;;28.50;25.50;;;;;;;11.37;100.00;99675.75;104729;1277;69157;-72
2022/10/05 07:46:25;;;;;;;30.10;26.40;;;;;;;11.50;100.00;99682.10;104699;1277;72208;-73
2022/10/05 07:49:12;;;;;;;27.10;24.30;;;;;;;11.61;100.00;99679.14;104670;1277;61559;-74
2022/10/05 07:51:44;;;;;;;22.90;20.60;;;;;;;11.70;100.00;99684.80;104824;1277;61361;-71
2022/10/05 07:54:41;;;;;;;25.50;21.80;;;;;;;11.79;100.00;99678.52;104781;1277;76440;-73
2022/10/05 07:57:27;;;;;;;23.00;20.20;;;;;;;11.98;100.00;99678.88;104661;1277;70188;-71
2022/10/05 08:00:02;;;;;;;22.20;19.80;;;;;;;12.10;100.00;99671.85;104797;1277;72209;-74
2022/10/05 08:02:46;;;;;;;21.90;19.30;;;;;;;12.18;100.00;99668.88;105080;1277;61355;-74
2022/10/05 08:05:22;;;;;;;22.70;20.30;;;;;;;12.31;100.00;99660.76;104731;1277;61497;-74
2022/10/05 08:07:56;;;;;;;22.40;19.30;;;;;;;12.49;100.00;99670.34;104780;1277;75250;-74
2022/10/05 08:10:39;;;;;;;20.20;18.10;;;;;;;12.64;100.00;99672.19;104989;1271;69160;-74
2022/10/05 08:13:36;;;;;;;18.60;15.80;;;;;;;12.81;100.00;99673.25;105005;1271;73201;-73
2022/10/05 08:16:11;;;;;;;19.20;14.30;;;;;;;13.03;100.00;99672.34;105225;1271;61304;-73
2022/10/05 08:19:13;;;;;;;18.10;14.40;;;;;;;13.21;100.00;99679.88;105179;1271;61348;-73
2022/10/05 08:22:12;;;;;;;17.40;14.40;;;;;;;13.36;100.00;99677.48;105212;1271;75215;-73
2022/10/05 08:24:54;;;;;;;15.20;13.50;;;;;;;13.46;100.00;99682.66;104876;1277;69274;-74
2022/10/05 08:27:48;;;;;;;15.40;12.60;;;;;;;13.62;100.00;99683.21;104828;1276;72665;-73
2022/10/05 08:30:15;;;;;;;15.30;12.40;;;;;;;13.79;100.00;99680.23;104762;1277;61237;-74
2022/10/05 08:32:50;;;;;;;16.30;12.70;;;;;;;13.90;100.00;99690.20;104811;1277;61413;-74
2022/10/05 08:35:44;;;;;;;17.90;14.00;;;;;;;13.90;100.00;99697.34;104603;1277;76744;-71
2022/10/05 08:38:15;;;;;;;20.80;17.70;;;;;;;13.96;100.00;99702.80;104803;1277;70002;-73
2022/10/05 08:40:47;;;;;;;21.10;18.90;;;;;;;14.07;100.00;99702.60;104461;1278;74466;-72
2022/10/05 08:43:38;;;;;;;23.70;21.20;;;;;;;14.15;100.00;99698.84;104783;1277;61373;-73
2022/10/05 08:46:29;;;;;;;24.50;19.70;;;;;;;14.19;100.00;99697.80;104712;1277;61279;-74
2022/10/05 08:49:19;;;;;;;22.70;19.60;;;;;;;14.25;100.00;99701.27;104573;1278;75310;-74
2022/10/05 08:52:20;;;;;;;20.10;18.00;;;;;;;14.32;100.00;99693.86;104809;1277;69171;-73
2022/10/05 08:55:09;;;;;;;20.60;17.40;;;;;;;14.36;100.00;99691.96;104801;1277;74552;-74
2022/10/05 08:57:48;;;;;;;22.90;18.60;;;;;;;14.51;100.00;99690.86;104730;1277;61578;-73
2022/10/05 09:00:20;;;;;;;23.10;19.30;;;;;;;14.73;100.00;99686.98;104742;1277;61801;-74
2022/10/05 09:03:08;;;;;;;24.90;17.80;;;;;;;14.92;100.00;99685.08;105150;1270;74375;-73
2022/10/05 09:05:56;;;;;;;20.40;14.30;;;;;;;15.18;100.00;99687.57;105185;1270;70421;-75
2022/10/05 09:08:39;;;;;;;16.80;14.90;;;;;;;15.41;100.00;99694.47;105213;1271;73455;-74
2022/10/05 09:11:39;;;;;;;13.00;11.00;;;;;;;15.62;100.00;99695.02;105233;1271;61302;-73
2022/10/05 09:14:47;;;;;;;13.00;11.50;;;;;;;15.80;100.00;99689.52;105366;1271;61634;-76
2022/10/05 09:17:39;;;;;;;11.40;9.90;;;;;;;16.06;100.00;99693.96;105236;1270;75035;-74
2022/10/05 09:20:33;;;;;;;11.50;9.50;;;;;;;16.20;100.00;99695.54;105265;1271;70224;-74
2022/10/05 09:23:12;;;;;;;11.70;9.40;;;;;;;16.36;100.00;99689.48;105242;1269;72354;-74
2022/10/05 09:25:54;;;;;;;11.30;9.50;;;;;;;16.57;100.00;99686.36;105299;1271;61210;-75
2022/10/05 09:28:30;;;;;;;12.30;9.50;;;;;;;16.61;100.00;99684.02;105247;1271;61362;-74
2022/10/05 09:31:13;;;;;;;10.30;9.30;;;;;;;16.61;100.00;99686.72;105212;1271;75355;-74
2022/10/05 09:34:17;;;;;;;10.00;8.70;;;;;;;16.67;100.00;99682.45;105260;1271;67331;-73
2022/10/05 09:36:46;;;;;;;14.80;9.40;;;;;;;16.81;100.00;99679.02;105258;1271;74455;-74
2022/10/05 09:39:31;;;;;;;11.30;10.20;;;;;;;16.92;100.00;99679.95;105264;1271;61407;-74
2022/10/05 09:42:42;;;;;;;12.90;8.90;;;;;;;16.98;100.00;99678.77;105266;1271;61263;-73
2022/10/05 09:45:21;;;;;;;11.00;9.80;;;;;;;17.02;100.00;99677.33;105227;1270;74154;-74
2022/10/05 09:48:11;;;;;;;11.30;9.50;;;;;;;17.07;100.00;99677.06;105293;1271;70120;-73
2022/10/05 09:51:04;;;;;;;;;;;;;;;17.20;100.00;99674.93;105290;1271;74362;-74
2022/10/05 09:53:50;;;;;;;11.50;9.30;;;;;;;17.33;100.00;99674.32;105155;1271;61368;-74
2022/10/05 09:56:57;;;;;;;13.90;9.30;;;;;;;17.41;100.00;99669.20;105232;1271;61272;-74
2022/10/05 10:00:01;;;;;;;10.60;8.20;;;;;;;17.59;100.00;99670.38;104620;1280;75197;-74
2022/10/05 10:02:56;;;;;;;11.10;8.60;;;;;;;17.69;100.00;99669.84;104780;1277;69524;-73
2022/10/05 10:05:32;;;;;;;11.40;8.40;;;;;;;17.71;100.00;99668.79;104587;1278;74499;-75
2022/10/05 10:08:23;;;;;;;9.70;8.50;;;;;;;17.75;100.00;99667.37;104742;1277;61297;-73
2022/10/05 10:11:17;;;;;;;9.10;7.80;;;;;;;17.79;100.00;99668.09;104809;1277;61401;-74
2022/10/05 10:13:54;;;;;;;11.00;8.30;;;;;;;17.78;100.00;99666.23;104787;1277;74651;-73
2022/10/05 10:16:49;;;;;;;13.60;8.70;;;;;;;17.82;100.00;99669.48;104837;1277;69443;-72
2022/10/05 10:19:20;;;;;;;9.60;7.70;;;;;;;17.84;100.00;99672.73;104772;1277;73305;-72
2022/10/05 10:22:26;;;;;;;10.80;7.10;;;;;;;17.88;100.00;99672.08;104778;1277;61389;-73
2022/10/05 10:25:30;;;;;;;7.80;6.50;;;;;;;18.04;100.00;99670.52;103902;1287;61721;-75
2022/10/05 10:28:06;;;;;;;10.60;7.20;;;;;;;18.12;100.00;99666.23;104099;1286;75281;-74
2022/10/05 10:30:55;;;;;;;7.40;6.50;;;;;;;18.11;100.00;99663.91;104085;1284;69312;-74
2022/10/05 10:33:30;;;;;;;9.40;6.20;;;;;;;18.12;100.00;99668.01;104131;1284;74419;-75
2022/10/05 10:35:59;;;;;;;5.30;4.30;;;;;;;18.15;100.00;99668.95;104167;1277;61537;-74
2022/10/05 10:38:57;;;;;;;3.40;2.90;;;;;;;18.18;100.00;99668.66;104810;1277;62037;-72
2022/10/05 10:41:42;;;;;;;3.60;2.60;;;;;;;18.40;100.00;99666.91;104821;1277;74858;-74
2022/10/05 10:44:30;;;;;;;2.80;2.50;;;;;;;18.58;100.00;99669.84;104825;1277;68834;-75
2022/10/05 10:47:21;;;;;;;2.80;2.40;;;;;;;18.72;100.00;99670.06;104772;1277;73294;-75
2022/10/05 10:50:10;;;;;;;4.70;2.30;;;;;;;18.78;100.00;99670.55;104783;1277;61399;-75
2022/10/05 10:53:00;;;;;;;3.30;2.20;;;;;;;18.85;100.00;99671.73;104809;1277;62672;-74
2022/10/05 10:55:49;;;;;;;3.50;2.30;;;;;;;18.90;100.00;99669.30;104534;1278;75414;-73
2022/10/05 10:58:53;;;;;;;4.40;2.70;;;;;;;18.99;100.00;99665.42;104804;1277;69696;-73
2022/10/05 11:01:28;;;;;;;2.60;2.40;;;;;;;19.14;100.00;99665.17;104810;1274;74238;-74
2022/10/05 11:04:04;;;;;;;2.60;2.30;;;;;;;19.22;100.00;99665.87;105208;1271;61261;-74
2022/10/05 11:06:47;;;;;;;4.30;2.50;;;;;;;19.36;100.00;99668.52;105273;1270;61910;-74
2022/10/05 11:10:02;;;;;;;2.70;2.40;;;;;;;19.55;100.00;99670.83;105226;1271;76244;-74
2022/10/05 11:12:43;;;;;;;3.20;2.30;;;;;;;19.68;100.00;99663.20;104849;1277;70530;-74
2022/10/05 11:15:12;;;;;;;2.70;2.50;;;;;;;19.68;100.00;99659.95;104907;1277;73372;-75
2022/10/05 11:17:49;;;;;;;3.10;2.10;;;;;;;19.69;100.00;99657.88;104835;1277;61275;-74
2022/10/05 11:20:51;;;;;;;3.30;2.30;;;;;;;19.59;100.00;99659.23;104838;1277;61723;-73
2022/10/05 11:23:38;;;;;;;2.40;2.20;;;;;;;19.53;100.00;99661.20;104212;1283;73603;-74
2022/10/05 11:26:36;;;;;;;3.10;2.70;;;;;;;19.48;100.00;99660.23;104412;1283;69499;-74
2022/10/05 11:29:33;;;;;;;2.80;2.00;;;;;;;19.46;100.00;99659.33;104168;1283;73742;-74
2022/10/05 11:32:26;;;;;;;2.50;2.30;;;;;;;19.45;100.00;99655.99;104199;1283;61201;-74
2022/10/05 11:35:23;;;;;;;2.60;2.10;;;;;;;19.43;100.00;99651.64;104094;1283;61218;-74
2022/10/05 11:38:14;;;;;;;3.60;2.10;;;;;;;19.39;100.00;99653.70;104231;1283;76163;-73
2022/10/05 11:40:56;;;;;;;4.00;2.20;;;;;;;19.43;100.00;99656.30;104230;1282;69102;-75
2022/10/05 11:44:14;;;;;;;3.10;2.10;;;;;;;19.37;100.00;99654.38;104200;1283;71906;-73
2022/10/05 11:46:52;;;;;;;2.50;2.20;;;;;;;19.31;100.00;99652.78;103511;1288;61433;-74
2022/10/05 11:49:22;;;;;;;2.40;2.20;;;;;;;19.33;100.00;99650.68;103693;1285;61364;-74
2022/10/05 11:52:01;;;;;;;2.40;2.20;;;;;;;19.29;100.00;99650.02;103946;1284;75462;-73
2022/10/05 11:55:02;;;;;;;5.50;3.10;;;;;;;19.20;100.00;99650.73;103902;1284;69116;-75
2022/10/05 11:57:50;;;;;;;3.50;2.40;;;;;;;19.13;100.00;99647.61;103962;1284;73490;-73
2022/10/05 12:00:21;;;;;;;2.80;2.40;;;;;;;19.11;100.00;99646.35;104026;1277;61503;-75
2022/10/05 12:03:04;;;;;;;3.30;2.60;;;;;;;19.09;100.00;99644.02;104584;1278;61333;-73
2022/10/05 12:05:47;;;;;;;6.70;2.50;;;;;;;19.09;100.00;99644.56;104565;1277;76604;-74
2022/10/05 12:08:34;;;;;;;2.50;2.00;;;;;;;19.08;100.00;99644.44;104562;1278;70446;-75
2022/10/05 12:11:10;;;;;;;3.20;2.20;;;;;;;19.04;100.00;99648.95;104572;1278;73312;-75
2022/10/05 12:14:19;;;;;;;3.30;2.40;;;;;;;19.03;100.00;99645.80;104567;1278;61342;-73
2022/10/05 12:16:54;;;;;;;2.80;2.30;;;;;;;19.00;100.00;99642.67;103993;1284;62400;-73
2022/10/05 12:19:33;;;;;;;3.20;2.60;;;;;;;18.95;100.00;99637.04;103756;1287;74181;-72
2022/10/05 12:22:26;;;;;;;5.30;2.60;;;;;;;18.92;100.00;99628.63;104150;1281;69312;-73
2022/10/05 12:25:04;;;;;;;3.70;2.40;;;;;;;18.90;100.00;99627.02;104855;1277;73495;-73
2022/10/05 12:27:41;;;;;;;3.30;2.30;;;;;;;18.87;100.00;99625.29;104812;1277;61284;-74